sensor_id;sensor_type;location;lat;lon;timestamp;pressure;altitude;pressure_sealevel;temperature;humidity
9189;BME280;34313;50.780;6.084;2023-04-01T00:01:04;97365.78;;;9.01;100.00
9189;BME280;34313;50.780;6.084;2023-04-01T00:03:30;97370.19;;;9.01;100.00
9189;BME280;34313;50.780;6.084;2023-04-01T00:05:56;97363.59;;;9.06;100.00
9189;BME280;34313;50.780;6.084;2023-04-01T00:08:22;97367.75;;;9.09;100.00
9189;BME280;34313;50.780;6.084;2023-04-01T00:10:48;97364.16;;;9.10;100.00
9189;BME280;34313;50.780;6.084;2023-04-01T00:13:14;97359.97;;;9.07;100.00
9189;BME280;34313;50.780;6.084;2023-04-01T00:15:41;97359.84;;;9.09;100.00
9189;BME280;34313;50.780;6.084;2023-04-01T00:18:07;97358.19;;;9.08;100.00
9189;BME280;34313;50.780;6.084;2023-04-01T00:20:32;97356.16;;;9.12;100.00
9189;BME280;34313;50.780;6.084;2023-04-01T00:22:58;97362.09;;;9.14;100.00
9189;BME280;34313;50.780;6.084;2023-04-01T00:25:24;97363.06;;;9.13;100.00
9189;BME280;34313;50.780;6.084;2023-04-01T00:27:49;97365.38;;;9.06;100.00
9189;BME280;34313;50.780;6.084;2023-04-01T00:30:15;97357.63;;;9.04;100.00
9189;BME280;34313;50.780;6.084;2023-04-01T00:32:40;97360.13;;;9.06;100.00
9189;BME280;34313;50.780;6.084;2023-04-01T00:35:06;97356.78;;;9.04;100.00
9189;BME280;34313;50.780;6.084;2023-04-01T00:37:34;97358.19;;;9.08;100.00
9189;BME280;34313;50.780;6.084;2023-04-01T00:40:00;97378.78;;;9.03;100.00
9189;BME280;34313;50.780;6.084;2023-04-01T00:42:25;97365.06;;;8.99;100.00
9189;BME280;34313;50.780;6.084;2023-04-01T00:44:52;97356.78;;;9.04;100.00
9189;BME280;34313;50.780;6.084;2023-04-01T00:47:18;97370.47;;;8.98;100.00
9189;BME280;34313;50.780;6.084;2023-04-01T00:49:46;97362.44;;;8.99;100.00
9189;BME280;34313;50.780;6.084;2023-04-01T00:52:16;97372.13;;;8.99;100.00
9189;BME280;34313;50.780;6.084;2023-04-01T00:54:46;97373.38;;;9.04;100.00
9189;BME280;34313;50.780;6.084;2023-04-01T00:57:15;97371.03;;;9.01;100.00
9189;BME280;34313;50.780;6.084;2023-04-01T00:59:47;97370.91;;;9.03;100.00
9189;BME280;34313;50.780;6.084;2023-04-01T01:02:15;97363.41;;;8.98;100.00
9189;BME280;34313;50.780;6.084;2023-04-01T01:04:41;97367.84;;;8.98;100.00
9189;BME280;34313;50.780;6.084;2023-04-01T01:12:18;97366.59;;;9.02;100.00
9189;BME280;34313;50.780;6.084;2023-04-01T01:15:12;97369.38;;;9.00;100.00
9189;BME280;34313;50.780;6.084;2023-04-01T01:18:01;97361.88;;;8.96;100.00
9189;BME280;34313;50.780;6.084;2023-04-01T01:23:39;97365.34;;;8.96;100.00
9189;BME280;34313;50.780;6.084;2023-04-01T01:32:32;97362.28;;;8.91;100.00
9189;BME280;34313;50.780;6.084;2023-04-01T01:35:16;97366.16;;;8.97;100.00
9189;BME280;34313;50.780;6.084;2023-04-01T01:37:44;97363.81;;;8.94;100.00
9189;BME280;34313;50.780;6.084;2023-04-01T01:40:11;97360.78;;;8.98;100.00
9189;BME280;34313;50.780;6.084;2023-04-01T01:42:41;97352.59;;;8.92;100.00
9189;BME280;34313;50.780;6.084;2023-04-01T01:45:10;97351.34;;;8.96;100.00
9189;BME280;34313;50.780;6.084;2023-04-01T01:47:38;97353.28;;;8.94;100.00
9189;BME280;34313;50.780;6.084;2023-04-01T01:50:07;97358.22;;;8.87;100.00
9189;BME280;34313;50.780;6.084;2023-04-01T01:52:33;97367.78;;;8.88;100.00
9189;BME280;34313;50.780;6.084;2023-04-01T01:54:58;97353.97;;;8.86;100.00
9189;BME280;34313;50.780;6.084;2023-04-01T01:57:34;97361.84;;;8.86;100.00
9189;BME280;34313;50.780;6.084;2023-04-01T02:00:06;97363.09;;;8.92;100.00
9189;BME280;34313;50.780;6.084;2023-04-01T02:02:39;97361.31;;;8.92;100.00
9189;BME280;34313;50.780;6.084;2023-04-01T02:05:08;97370.97;;;8.92;100.00
9189;BME280;34313;50.780;6.084;2023-04-01T02:07:36;97364.91;;;8.91;100.00
9189;BME280;34313;50.780;6.084;2023-04-01T02:10:04;97364.47;;;8.86;100.00
9189;BME280;34313;50.780;6.084;2023-04-01T02:12:31;97363.94;;;8.92;100.00
9189;BME280;34313;50.780;6.084;2023-04-01T02:15:06;97362.16;;;8.93;100.00
9189;BME280;34313;50.780;6.084;2023-04-01T02:17:34;97348.59;;;8.87;100.00
9189;BME280;34313;50.780;6.084;2023-04-01T02:20:10;97355.59;;;8.87;100.00
9189;BME280;34313;50.780;6.084;2023-04-01T02:22:40;97363.22;;;8.90;100.00
9189;BME280;34313;50.780;6.084;2023-04-01T02:25:14;97356.19;;;8.91;100.00
9189;BME280;34313;50.780;6.084;2023-04-01T02:27:42;97365.84;;;8.90;100.00
9189;BME280;34313;50.780;6.084;2023-04-01T02:30:09;97357.72;;;8.93;100.00
9189;BME280;34313;50.780;6.084;2023-04-01T02:32:36;97373.63;;;8.92;100.00
9189;BME280;34313;50.780;6.084;2023-04-01T02:35:05;97368.94;;;8.95;100.00
9189;BME280;34313;50.780;6.084;2023-04-01T02:37:32;97375.16;;;8.94;100.00
9189;BME280;34313;50.780;6.084;2023-04-01T02:40:03;97370.84;;;8.93;100.00
9189;BME280;34313;50.780;6.084;2023-04-01T02:42:31;97369.34;;;8.91;100.00
9189;BME280;34313;50.780;6.084;2023-04-01T02:44:56;97370.84;;;8.93;100.00
9189;BME280;34313;50.780;6.084;2023-04-01T02:47:22;97372.09;;;8.89;100.00
9189;BME280;34313;50.780;6.084;2023-04-01T02:49:47;97369.03;;;8.84;100.00
9189;BME280;34313;50.780;6.084;2023-04-01T02:52:12;97374.16;;;8.85;100.00
9189;BME280;34313;50.780;6.084;2023-04-01T02:54:38;97368.75;;;8.87;100.00
9189;BME280;34313;50.780;6.084;2023-04-01T02:57:03;97366.97;;;8.87;100.00
9189;BME280;34313;50.780;6.084;2023-04-01T02:59:28;97372.22;;;8.87;100.00
9189;BME280;34313;50.780;6.084;2023-04-01T03:01:54;97367.78;;;8.88;100.00
9189;BME280;34313;50.780;6.084;2023-04-01T03:04:19;97375.78;;;8.86;100.00
9189;BME280;34313;50.780;6.084;2023-04-01T03:06:45;97374.97;;;8.86;100.00
9189;BME280;34313;50.780;6.084;2023-04-01T03:09:10;97378.03;;;8.91;100.00
9189;BME280;34313;50.780;6.084;2023-04-01T03:11:35;97374.97;;;8.86;100.00
9189;BME280;34313;50.780;6.084;2023-04-01T03:14:01;97375.91;;;8.85;100.00
9189;BME280;34313;50.780;6.084;2023-04-01T03:16:26;97386.44;;;8.85;100.00
9189;BME280;34313;50.780;6.084;2023-04-01T03:18:51;97374.72;;;8.89;100.00
9189;BME280;34313;50.780;6.084;2023-04-01T03:21:22;97382.47;;;8.91;100.00
9189;BME280;34313;50.780;6.084;2023-04-01T03:23:48;97397.50;;;8.88;100.00
9189;BME280;34313;50.780;6.084;2023-04-01T03:26:15;97395.75;;;8.89;100.00
9189;BME280;34313;50.780;6.084;2023-04-01T03:28:40;97396.00;;;8.86;100.00
9189;BME280;34313;50.780;6.084;2023-04-01T03:31:06;97381.75;;;8.88;100.00
9189;BME280;34313;50.780;6.084;2023-04-01T03:33:31;97393.09;;;8.89;100.00
9189;BME280;34313;50.780;6.084;2023-04-01T03:35:57;97392.13;;;8.90;100.00
9189;BME280;34313;50.780;6.084;2023-04-01T03:38:23;97392.69;;;8.94;100.00
9189;BME280;34313;50.780;6.084;2023-04-01T03:40:48;97393.38;;;8.96;100.00
9189;BME280;34313;50.780;6.084;2023-04-01T03:43:14;97394.25;;;8.96;100.00
9189;BME280;34313;50.780;6.084;2023-04-01T03:45:45;97389.81;;;8.97;100.00
9189;BME280;34313;50.780;6.084;2023-04-01T03:48:11;97381.75;;;8.88;100.00
9189;BME280;34313;50.780;6.084;2023-04-01T03:50:36;97398.81;;;8.94;100.00
9189;BME280;34313;50.780;6.084;2023-04-01T03:53:01;97410.00;;;8.96;100.00
9189;BME280;34313;50.780;6.084;2023-04-01T03:55:27;97393.97;;;8.99;100.00
9189;BME280;34313;50.780;6.084;2023-04-01T03:57:52;97407.38;;;8.96;100.00
9189;BME280;34313;50.780;6.084;2023-04-01T04:00:17;97413.59;;;8.95;100.00
9189;BME280;34313;50.780;6.084;2023-04-01T04:02:43;97418.59;;;8.98;100.00
9189;BME280;34313;50.780;6.084;2023-04-01T04:05:08;97420.09;;;9.01;100.00
9189;BME280;34313;50.780;6.084;2023-04-01T04:07:36;97421.47;;;8.95;100.00
9189;BME280;34313;50.780;6.084;2023-04-01T04:10:02;97427.84;;;8.93;100.00
9189;BME280;34313;50.780;6.084;2023-04-01T04:12:28;97424.91;;;8.96;100.00
9189;BME280;34313;50.780;6.084;2023-04-01T04:14:53;97425.78;;;8.96;100.00
9189;BME280;34313;50.780;6.084;2023-04-01T04:17:18;97425.78;;;8.96;100.00
9189;BME280;34313;50.780;6.084;2023-04-01T04:19:44;97433.09;;;8.93;100.00
9189;BME280;34313;50.780;6.084;2023-04-01T04:22:09;97424.91;;;8.96;100.00
9189;BME280;34313;50.780;6.084;2023-04-01T04:24:35;97432.81;;;8.96;100.00
9189;BME280;34313;50.780;6.084;2023-04-01T04:27:01;97434.84;;;8.92;100.00
9189;BME280;34313;50.780;6.084;2023-04-01T04:29:26;97436.72;;;9.01;100.00
9189;BME280;34313;50.780;6.084;2023-04-01T04:31:51;97439.59;;;8.98;100.00
9189;BME280;34313;50.780;6.084;2023-04-01T04:34:17;97441.53;;;8.96;100.00
9189;BME280;34313;50.780;6.084;2023-04-01T04:36:44;97444.16;;;8.96;100.00
9189;BME280;34313;50.780;6.084;2023-04-01T04:39:09;97443.88;;;8.99;100.00
9189;BME280;34313;50.780;6.084;2023-04-01T04:41:37;97438.06;;;8.96;100.00
9189;BME280;34313;50.780;6.084;2023-04-01T04:44:02;97445.69;;;8.99;100.00
9189;BME280;34313;50.780;6.084;2023-04-01T04:46:28;97440.97;;;8.93;100.00
9189;BME280;34313;50.780;6.084;2023-04-01T04:48:53;97444.16;;;8.96;100.00
9189;BME280;34313;50.780;6.084;2023-04-01T04:51:19;97455.31;;;8.88;100.00
9189;BME280;34313;50.780;6.084;2023-04-01T04:53:45;97456.03;;;8.91;100.00
9189;BME280;34313;50.780;6.084;2023-04-01T04:56:11;97456.31;;;8.97;100.00
9189;BME280;34313;50.780;6.084;2023-04-01T04:58:37;97460.06;;;8.95;100.00
9189;BME280;34313;50.780;6.084;2023-04-01T05:01:11;97466.38;;;8.92;100.00
9189;BME280;34313;50.780;6.084;2023-04-01T05:03:37;97459.59;;;8.89;100.00
9189;BME280;34313;50.780;6.084;2023-04-01T05:06:03;97468.50;;;8.98;100.00
9189;BME280;34313;50.780;6.084;2023-04-01T05:08:29;97466.72;;;8.99;100.00
9189;BME280;34313;50.780;6.084;2023-04-01T05:10:54;97476.78;;;8.94;100.00
9189;BME280;34313;50.780;6.084;2023-04-01T05:13:19;97473.56;;;8.90;100.00
9189;BME280;34313;50.780;6.084;2023-04-01T05:15:45;97486.06;;;8.98;100.00
9189;BME280;34313;50.780;6.084;2023-04-01T05:18:10;97476.78;;;8.94;100.00
9189;BME280;34313;50.780;6.084;2023-04-01T05:20:35;97483.94;;;8.92;100.00
9189;BME280;34313;50.780;6.084;2023-04-01T05:23:01;97477.28;;;8.87;100.00
9189;BME280;34313;50.780;6.084;2023-04-01T05:25:26;97484.84;;;8.81;100.00
9189;BME280;34313;50.780;6.084;2023-04-01T05:27:51;97485.56;;;8.83;100.00
9189;BME280;34313;50.780;6.084;2023-04-01T05:30:17;97492.34;;;8.85;100.00
9189;BME280;34313;50.780;6.084;2023-04-01T05:32:43;97490.44;;;8.87;100.00
9189;BME280;34313;50.780;6.084;2023-04-01T05:35:09;97493.75;;;8.89;100.00
9189;BME280;34313;50.780;6.084;2023-04-01T05:37:35;97497.78;;;8.94;100.00
9189;BME280;34313;50.780;6.084;2023-04-01T05:40:00;97503.00;;;8.84;100.00
9189;BME280;34313;50.780;6.084;2023-04-01T05:42:26;97504.28;;;8.89;100.00
9189;BME280;34313;50.780;6.084;2023-04-01T05:44:51;97509.16;;;8.94;100.00
9189;BME280;34313;50.780;6.084;2023-04-01T05:47:17;97507.78;;;9.00;100.00
9189;BME280;34313;50.780;6.084;2023-04-01T05:49:42;97514.69;;;9.01;100.00
9189;BME280;34313;50.780;6.084;2023-04-01T05:52:08;97507.66;;;9.01;100.00
9189;BME280;34313;50.780;6.084;2023-04-01T05:54:33;97517.03;;;8.94;100.00
9189;BME280;34313;50.780;6.084;2023-04-01T05:56:58;97514.69;;;9.01;100.00
9189;BME280;34313;50.780;6.084;2023-04-01T05:59:24;97519.97;;;9.01;100.00
9189;BME280;34313;50.780;6.084;2023-04-01T06:01:49;97519.66;;;8.94;100.00
9189;BME280;34313;50.780;6.084;2023-04-01T06:04:16;97522.41;;;8.93;100.00
9189;BME280;34313;50.780;6.084;2023-04-01T06:06:42;97526.09;;;8.90;100.00
9189;BME280;34313;50.780;6.084;2023-04-01T06:09:26;97526.44;;;8.97;100.00
9189;BME280;34313;50.780;6.084;2023-04-01T06:23:21;97538.88;;;9.16;100.00
9189;BME280;34313;50.780;6.084;2023-04-01T06:46:19;97553.97;;;9.44;100.00
9189;BME280;34313;50.780;6.084;2023-04-01T06:54:20;97570.13;;;9.61;100.00
9189;BME280;34313;50.780;6.084;2023-04-01T06:56:51;97568.59;;;9.58;100.00
9189;BME280;34313;50.780;6.084;2023-04-01T06:59:32;97562.94;;;9.63;100.00
9189;BME280;34313;50.780;6.084;2023-04-01T07:02:05;97557.00;;;9.71;100.00
9189;BME280;34313;50.780;6.084;2023-04-01T07:04:40;97566.91;;;9.78;100.00
9189;BME280;34313;50.780;6.084;2023-04-01T07:07:20;97560.66;;;9.79;100.00
9189;BME280;34313;50.780;6.084;2023-04-01T07:09:52;97569.78;;;9.75;100.00
9189;BME280;34313;50.780;6.084;2023-04-01T07:14:56;97583.28;;;9.92;100.00
9189;BME280;34313;50.780;6.084;2023-04-01T07:17:28;97584.41;;;9.99;100.00
9189;BME280;34313;50.780;6.084;2023-04-01T07:20:05;97586.88;;;9.91;100.00
9189;BME280;34313;50.780;6.084;2023-04-01T07:22:47;97593.22;;;9.88;100.00
9189;BME280;34313;50.780;6.084;2023-04-01T07:25:17;97587.41;;;9.84;100.00
9189;BME280;34313;50.780;6.084;2023-04-01T07:27:44;97598.09;;;9.93;100.00
9189;BME280;34313;50.780;6.084;2023-04-01T07:30:18;97597.41;;;9.91;100.00
9189;BME280;34313;50.780;6.084;2023-04-01T07:32:48;97604.31;;;9.82;100.00
9189;BME280;34313;50.780;6.084;2023-04-01T07:43:41;97619.81;;;9.85;100.00
9189;BME280;34313;50.780;6.084;2023-04-01T07:49:11;97629.13;;;9.89;100.00
9189;BME280;34313;50.780;6.084;2023-04-01T07:51:46;97631.09;;;9.97;100.00
9189;BME280;34313;50.780;6.084;2023-04-01T07:54:38;97635.97;;;10.01;100.00
9189;BME280;34313;50.780;6.084;2023-04-01T07:57:21;97637.47;;;9.94;100.00
9189;BME280;34313;50.780;6.084;2023-04-01T08:02:58;97624.91;;;9.77;100.00
9189;BME280;34313;50.780;6.084;2023-04-01T08:08:28;97652.28;;;9.74;100.00
9189;BME280;34313;50.780;6.084;2023-04-01T08:16:35;97661.66;;;9.88;100.00
9189;BME280;34313;50.780;6.084;2023-04-01T08:22:26;97671.88;;;10.12;100.00
9189;BME280;34313;50.780;6.084;2023-04-01T08:24:54;97670.25;;;10.21;100.00
9189;BME280;34313;50.780;6.084;2023-04-01T08:27:26;97679.06;;;10.31;100.00
9189;BME280;34313;50.780;6.084;2023-04-01T08:30:21;97685.59;;;10.37;100.00
9189;BME280;34313;50.780;6.084;2023-04-01T08:33:11;97680.81;;;10.31;100.00
9189;BME280;34313;50.780;6.084;2023-04-01T08:35:42;97687.66;;;10.33;100.00
9189;BME280;34313;50.780;6.084;2023-04-01T08:38:15;97691.25;;;10.32;100.00
9189;BME280;34313;50.780;6.084;2023-04-01T08:40:51;97691.47;;;10.50;100.00
9189;BME280;34313;50.780;6.084;2023-04-01T08:46:16;97694.13;;;10.50;100.00
9189;BME280;34313;50.780;6.084;2023-04-01T08:48:58;97701.59;;;10.45;100.00
9189;BME280;34313;50.780;6.084;2023-04-01T08:54:29;97697.75;;;10.59;100.00
9189;BME280;34313;50.780;6.084;2023-04-01T08:57:13;97699.88;;;10.75;100.00
9189;BME280;34313;50.780;6.084;2023-04-01T09:11:04;97726.88;;;11.18;100.00
9189;BME280;34313;50.780;6.084;2023-04-01T09:35:20;97746.72;;;11.31;100.00
9189;BME280;34313;50.780;6.084;2023-04-01T09:37:53;97749.22;;;11.43;100.00
9189;BME280;34313;50.780;6.084;2023-04-01T09:43:21;97757.56;;;11.19;100.00
9189;BME280;34313;50.780;6.084;2023-04-01T09:46:09;97758.63;;;11.16;100.00
9189;BME280;34313;50.780;6.084;2023-04-01T09:52:00;97761.41;;;11.14;100.00
9189;BME280;34313;50.780;6.084;2023-04-01T10:00:21;97778.75;;;10.67;100.00
9189;BME280;34313;50.780;6.084;2023-04-01T10:36:17;97818.53;;;11.45;100.00
9189;BME280;34313;50.780;6.084;2023-04-01T10:44:11;97806.50;;;11.91;100.00
9189;BME280;34313;50.780;6.084;2023-04-01T10:49:43;97814.53;;;12.09;100.00
9189;BME280;34313;50.780;6.084;2023-04-01T11:00:53;97811.34;;;12.25;99.12
9189;BME280;34313;50.780;6.084;2023-04-01T11:11:48;97836.22;;;12.13;100.00
9189;BME280;34313;50.780;6.084;2023-04-01T11:14:26;97840.38;;;12.25;100.00
9189;BME280;34313;50.780;6.084;2023-04-01T11:17:37;97835.78;;;12.37;99.84
9189;BME280;34313;50.780;6.084;2023-04-01T11:31:00;97841.13;;;11.28;100.00
9189;BME280;34313;50.780;6.084;2023-04-01T11:33:34;97849.91;;;11.07;100.00
9189;BME280;34313;50.780;6.084;2023-04-01T11:41:55;97859.50;;;11.49;100.00
9189;BME280;34313;50.780;6.084;2023-04-01T11:44:28;97864.13;;;11.86;100.00
9189;BME280;34313;50.780;6.084;2023-04-01T11:49:50;97868.59;;;12.15;100.00
9189;BME280;34313;50.780;6.084;2023-04-01T11:52:25;97864.03;;;12.36;100.00
9189;BME280;34313;50.780;6.084;2023-04-01T12:17:26;97902.81;;;12.36;100.00
9189;BME280;34313;50.780;6.084;2023-04-01T12:20:24;97897.09;;;12.30;100.00
9189;BME280;34313;50.780;6.084;2023-04-01T12:25:51;97913.50;;;12.05;100.00
9189;BME280;34313;50.780;6.084;2023-04-01T12:31:22;97914.09;;;11.58;100.00
9189;BME280;34313;50.780;6.084;2023-04-01T12:34:23;97917.84;;;11.65;100.00
9189;BME280;34313;50.780;6.084;2023-04-01T12:40:02;97919.19;;;11.90;100.00
9189;BME280;34313;50.780;6.084;2023-04-01T12:45:27;97922.34;;;11.84;100.00
9189;BME280;34313;50.780;6.084;2023-04-01T12:51:12;97926.69;;;11.95;100.00
9189;BME280;34313;50.780;6.084;2023-04-01T13:07:23;97937.44;;;12.23;100.00
9189;BME280;34313;50.780;6.084;2023-04-01T13:10:13;97927.13;;;12.00;100.00
9189;BME280;34313;50.780;6.084;2023-04-01T13:13:09;97944.16;;;11.86;100.00
9189;BME280;34313;50.780;6.084;2023-04-01T13:15:48;97942.41;;;11.97;100.00
9189;BME280;34313;50.780;6.084;2023-04-01T13:21:05;97946.84;;;12.06;100.00
9189;BME280;34313;50.780;6.084;2023-04-01T13:23:57;97946.28;;;12.02;100.00
9189;BME280;34313;50.780;6.084;2023-04-01T13:29:24;97954.69;;;12.46;97.95
9189;BME280;34313;50.780;6.084;2023-04-01T13:34:47;97957.28;;;13.42;94.40
9189;BME280;34313;50.780;6.084;2023-04-01T13:43:39;97959.16;;;13.22;93.86
9189;BME280;34313;50.780;6.084;2023-04-01T13:46:39;97964.09;;;12.98;96.50
9189;BME280;34313;50.780;6.084;2023-04-01T13:49:22;97970.38;;;12.48;98.50
9189;BME280;34313;50.780;6.084;2023-04-01T14:05:24;97983.25;;;13.67;91.08
9189;BME280;34313;50.780;6.084;2023-04-01T14:08:11;97986.16;;;14.19;89.76
9189;BME280;34313;50.780;6.084;2023-04-01T14:10:54;97984.66;;;14.16;89.86
9189;BME280;34313;50.780;6.084;2023-04-01T14:13:34;97983.81;;;13.88;89.64
9189;BME280;34313;50.780;6.084;2023-04-01T14:19:28;97993.41;;;13.14;94.67
9189;BME280;34313;50.780;6.084;2023-04-01T14:30:30;98005.59;;;12.48;100.00
9189;BME280;34313;50.780;6.084;2023-04-01T14:33:08;98019.09;;;12.55;100.00
9189;BME280;34313;50.780;6.084;2023-04-01T14:41:48;98022.25;;;13.17;98.83
9189;BME280;34313;50.780;6.084;2023-04-01T14:47:27;98024.50;;;12.63;100.00
9189;BME280;34313;50.780;6.084;2023-04-01T14:50:02;98025.91;;;12.58;100.00
9189;BME280;34313;50.780;6.084;2023-04-01T14:52:31;98032.84;;;12.68;100.00
9189;BME280;34313;50.780;6.084;2023-04-01T14:55:17;98041.19;;;12.74;99.36
9189;BME280;34313;50.780;6.084;2023-04-01T14:57:58;98032.28;;;12.65;100.00
9189;BME280;34313;50.780;6.084;2023-04-01T15:00:25;98036.03;;;12.53;100.00
9189;BME280;34313;50.780;6.084;2023-04-01T15:06:08;98037.44;;;12.47;100.00
9189;BME280;34313;50.780;6.084;2023-04-01T15:08:18;98044.22;;;12.30;100.00
9189;BME280;34313;50.780;6.084;2023-04-01T15:13:37;98048.16;;;11.95;100.00
9189;BME280;34313;50.780;6.084;2023-04-01T15:18:59;98064.25;;;12.42;100.00
9189;BME280;34313;50.780;6.084;2023-04-01T15:21:58;98056.19;;;12.44;nan
9189;BME280;34313;50.780;6.084;2023-04-01T15:27:38;98073.19;;;12.61;99.28
9189;BME280;34313;50.780;6.084;2023-04-01T15:30:33;98068.03;;;12.49;100.00
9189;BME280;34313;50.780;6.084;2023-04-01T15:41:39;98071.66;;;11.77;100.00
9189;BME280;34313;50.780;6.084;2023-04-01T15:46:58;98090.88;;;11.37;100.00
9189;BME280;34313;50.780;6.084;2023-04-01T15:49:41;98090.09;;;11.46;100.00
9189;BME280;34313;50.780;6.084;2023-04-01T15:52:24;98095.53;;;11.45;100.00
9189;BME280;34313;50.780;6.084;2023-04-01T16:00:41;98099.19;;;11.32;100.00
9189;BME280;34313;50.780;6.084;2023-04-01T16:06:25;98117.84;;;11.20;100.00
9189;BME280;34313;50.780;6.084;2023-04-01T16:15:29;98121.16;;;11.01;100.00
9189;BME280;34313;50.780;6.084;2023-04-01T16:26:08;98121.38;;;10.65;100.00
9189;BME280;34313;50.780;6.084;2023-04-01T16:36:37;98142.69;;;10.73;100.00
9189;BME280;34313;50.780;6.084;2023-04-01T16:39:19;98144.94;;;10.78;100.00
9189;BME280;34313;50.780;6.084;2023-04-01T16:41:52;98147.09;;;10.84;100.00
9189;BME280;34313;50.780;6.084;2023-04-01T16:44:25;98151.06;;;10.78;100.00
9189;BME280;34313;50.780;6.084;2023-04-01T16:47:10;98153.84;;;10.66;100.00
9189;BME280;34313;50.780;6.084;2023-04-01T16:49:51;98167.28;;;10.63;100.00
9189;BME280;34313;50.780;6.084;2023-04-01T16:52:40;98168.69;;;10.67;100.00
9189;BME280;34313;50.780;6.084;2023-04-01T16:55:17;98160.22;;;10.63;100.00
9189;BME280;34313;50.780;6.084;2023-04-01T16:57:56;98170.72;;;10.74;100.00
9189;BME280;34313;50.780;6.084;2023-04-01T17:00:28;98173.00;;;10.79;100.00
9189;BME280;34313;50.780;6.084;2023-04-01T17:03:03;98180.94;;;10.68;100.00
9189;BME280;34313;50.780;6.084;2023-04-01T17:05:40;98176.13;;;10.62;100.00
9189;BME280;34313;50.780;6.084;2023-04-01T17:11:26;98189.66;;;10.57;100.00
9189;BME280;34313;50.780;6.084;2023-04-01T17:14:23;98183.09;;;10.51;100.00
9189;BME280;34313;50.780;6.084;2023-04-01T17:19:37;98201.00;;;10.23;100.00
9189;BME280;34313;50.780;6.084;2023-04-01T17:22:22;98211.06;;;10.18;100.00
9189;BME280;34313;50.780;6.084;2023-04-01T17:27:50;98213.09;;;9.92;100.00
9189;BME280;34313;50.780;6.084;2023-04-01T17:33:29;98218.22;;;9.82;100.00
9189;BME280;34313;50.780;6.084;2023-04-01T17:38:46;98230.97;;;9.76;100.00
9189;BME280;34313;50.780;6.084;2023-04-01T17:41:28;98239.09;;;9.73;100.00
9189;BME280;34313;50.780;6.084;2023-04-01T17:44:20;98231.81;;;9.76;100.00
9189;BME280;34313;50.780;6.084;2023-04-01T17:49:42;98237.88;;;9.65;100.00
9189;BME280;34313;50.780;6.084;2023-04-01T17:52:23;98244.66;;;9.57;100.00
9189;BME280;34313;50.780;6.084;2023-04-01T18:09:04;98256.59;;;9.50;100.00
9189;BME280;34313;50.780;6.084;2023-04-01T18:17:04;98270.75;;;9.36;100.00
9189;BME280;34313;50.780;6.084;2023-04-01T18:22:28;98280.66;;;9.32;100.00
9189;BME280;34313;50.780;6.084;2023-04-01T18:27:30;98288.75;;;9.29;100.00
9189;BME280;34313;50.780;6.084;2023-04-01T18:30:11;98297.28;;;9.33;100.00
9189;BME280;34313;50.780;6.084;2023-04-01T18:32:50;98291.84;;;9.23;100.00
9189;BME280;34313;50.780;6.084;2023-04-01T18:38:12;98303.97;;;9.13;100.00
9189;BME280;34313;50.780;6.084;2023-04-01T18:40:49;98298.59;;;9.14;100.00
9189;BME280;34313;50.780;6.084;2023-04-01T18:43:27;98302.84;;;9.04;100.00
9189;BME280;34313;50.780;6.084;2023-04-01T18:46:00;98304.94;;;9.12;100.00
9189;BME280;34313;50.780;6.084;2023-04-01T18:48:38;98302.00;;;9.03;100.00
9189;BME280;34313;50.780;6.084;2023-04-01T18:51:20;98315.47;;;8.99;100.00
9189;BME280;34313;50.780;6.084;2023-04-01T18:54:01;98303.50;;;8.95;100.00
9189;BME280;34313;50.780;6.084;2023-04-01T18:56:40;98320.50;;;9.02;100.00
9189;BME280;34313;50.780;6.084;2023-04-01T18:59:29;98330.50;;;8.97;100.00
9189;BME280;34313;50.780;6.084;2023-04-01T19:02:02;98331.34;;;8.97;100.00
9189;BME280;34313;50.780;6.084;2023-04-01T19:04:37;98328.81;;;8.96;100.00
9189;BME280;34313;50.780;6.084;2023-04-01T19:09:51;98330.72;;;8.94;100.00
9189;BME280;34313;50.780;6.084;2023-04-01T19:12:39;98339.56;;;8.93;100.00
9189;BME280;34313;50.780;6.084;2023-04-01T19:17:54;98347.00;;;8.99;100.00
9189;BME280;34313;50.780;6.084;2023-04-01T19:20:34;98348.28;;;8.93;100.00
9189;BME280;34313;50.780;6.084;2023-04-01T19:25:43;98357.09;;;8.92;100.00
9189;BME280;34313;50.780;6.084;2023-04-01T19:33:28;98356.47;;;8.88;100.00
9189;BME280;34313;50.780;6.084;2023-04-01T19:43:59;98364.03;;;8.93;100.00
9189;BME280;34313;50.780;6.084;2023-04-01T19:46:41;98363.22;;;8.93;100.00
9189;BME280;34313;50.780;6.084;2023-04-01T19:55:03;98373.81;;;8.91;100.00
9189;BME280;34313;50.780;6.084;2023-04-01T19:58:06;98380.22;;;8.87;100.00
9189;BME280;34313;50.780;6.084;2023-04-01T20:00:51;98375.41;;;8.81;100.00
9189;BME280;34313;50.780;6.084;2023-04-01T20:14:45;98387.38;;;8.85;100.00
9189;BME280;34313;50.780;6.084;2023-04-01T20:17:24;98397.16;;;8.83;100.00
9189;BME280;34313;50.780;6.084;2023-04-01T20:20:01;98406.72;;;8.84;100.00
9189;BME280;34313;50.780;6.084;2023-04-01T20:25:26;98409.34;;;8.84;100.00
9189;BME280;34313;50.780;6.084;2023-04-01T20:33:19;98416.81;;;8.90;100.00
9189;BME280;34313;50.780;6.084;2023-04-01T20:36:06;98422.16;;;8.88;100.00
9189;BME280;34313;50.780;6.084;2023-04-01T20:43:57;98426.47;;;8.89;100.00
9189;BME280;34313;50.780;6.084;2023-04-01T20:54:51;98432.69;;;9.01;100.00
9189;BME280;34313;50.780;6.084;2023-04-01T20:57:45;98433.09;;;8.95;100.00
9189;BME280;34313;50.780;6.084;2023-04-01T21:00:41;98437.41;;;8.96;100.00
9189;BME280;34313;50.780;6.084;2023-04-01T21:06:15;98443.31;;;9.00;100.00
9189;BME280;34313;50.780;6.084;2023-04-01T21:14:33;98447.50;;;8.89;100.00
9189;BME280;34313;50.780;6.084;2023-04-01T21:17:29;98453.28;;;8.95;100.00
9189;BME280;34313;50.780;6.084;2023-04-01T21:20:32;98455.09;;;8.94;100.00
9189;BME280;34313;50.780;6.084;2023-04-01T21:23:19;98462.09;;;8.81;100.00
9189;BME280;34313;50.780;6.084;2023-04-01T21:29:07;98476.91;;;8.69;100.00
9189;BME280;34313;50.780;6.084;2023-04-01T21:34:34;98482.28;;;8.80;100.00
9189;BME280;34313;50.780;6.084;2023-04-01T21:37:13;98488.91;;;8.86;100.00
9189;BME280;34313;50.780;6.084;2023-04-01T21:40:43;98486.63;;;8.94;100.00
9189;BME280;34313;50.780;6.084;2023-04-01T21:50:42;98500.28;;;9.12;100.00